sensor_id;sensor_type;location;lat;lon;timestamp;temperature;humidity
40287;DHT22;25998;46.604;13.610;2023-01-20T00:01:13;0.80;99.90
40287;DHT22;25998;46.604;13.610;2023-01-20T00:04:24;0.80;99.90
40287;DHT22;25998;46.604;13.610;2023-01-20T00:07:35;0.90;99.90
40287;DHT22;25998;46.604;13.610;2023-01-20T00:10:49;1.00;99.90
40287;DHT22;25998;46.604;13.610;2023-01-20T00:14:00;1.10;99.90
40287;DHT22;25998;46.604;13.610;2023-01-20T00:17:12;1.20;99.90
40287;DHT22;25998;46.604;13.610;2023-01-20T00:20:22;1.40;99.90
40287;DHT22;25998;46.604;13.610;2023-01-20T00:23:33;1.30;99.90
40287;DHT22;25998;46.604;13.610;2023-01-20T00:26:44;1.20;99.90
40287;DHT22;25998;46.604;13.610;2023-01-20T00:29:55;1.10;99.90
40287;DHT22;25998;46.604;13.610;2023-01-20T00:33:06;1.10;99.90
40287;DHT22;25998;46.604;13.610;2023-01-20T00:36:19;1.10;99.90
40287;DHT22;25998;46.604;13.610;2023-01-20T00:39:30;1.00;99.90
40287;DHT22;25998;46.604;13.610;2023-01-20T00:42:43;1.10;99.90
40287;DHT22;25998;46.604;13.610;2023-01-20T00:45:54;1.20;99.90
40287;DHT22;25998;46.604;13.610;2023-01-20T00:49:05;1.30;99.90
40287;DHT22;25998;46.604;13.610;2023-01-20T00:52:16;1.30;99.90
40287;DHT22;25998;46.604;13.610;2023-01-20T00:55:28;1.30;99.90
40287;DHT22;25998;46.604;13.610;2023-01-20T00:58:41;1.40;99.90
40287;DHT22;25998;46.604;13.610;2023-01-20T01:01:53;1.20;99.90
40287;DHT22;25998;46.604;13.610;2023-01-20T01:05:04;1.00;99.90
40287;DHT22;25998;46.604;13.610;2023-01-20T01:08:15;1.10;99.90
40287;DHT22;25998;46.604;13.610;2023-01-20T01:11:26;1.20;99.90
40287;DHT22;25998;46.604;13.610;2023-01-20T01:14:37;1.30;99.90
40287;DHT22;25998;46.604;13.610;2023-01-20T01:17:48;1.20;99.90
40287;DHT22;25998;46.604;13.610;2023-01-20T01:20:59;1.10;99.90
40287;DHT22;25998;46.604;13.610;2023-01-20T01:24:15;1.20;99.90
40287;DHT22;25998;46.604;13.610;2023-01-20T01:27:27;1.20;99.90
40287;DHT22;25998;46.604;13.610;2023-01-20T01:30:38;1.10;99.90
40287;DHT22;25998;46.604;13.610;2023-01-20T01:33:49;1.00;99.90
40287;DHT22;25998;46.604;13.610;2023-01-20T01:37:00;0.90;99.90
40287;DHT22;25998;46.604;13.610;2023-01-20T01:40:11;1.00;99.90
40287;DHT22;25998;46.604;13.610;2023-01-20T01:43:33;1.00;99.90
40287;DHT22;25998;46.604;13.610;2023-01-20T01:46:44;1.00;99.90
40287;DHT22;25998;46.604;13.610;2023-01-20T01:49:55;1.00;99.90
40287;DHT22;25998;46.604;13.610;2023-01-20T01:53:06;1.00;99.90
40287;DHT22;25998;46.604;13.610;2023-01-20T01:56:20;1.00;99.90
40287;DHT22;25998;46.604;13.610;2023-01-20T01:59:31;1.00;99.90
40287;DHT22;25998;46.604;13.610;2023-01-20T02:02:43;0.80;99.90
40287;DHT22;25998;46.604;13.610;2023-01-20T02:05:55;0.70;99.90
40287;DHT22;25998;46.604;13.610;2023-01-20T02:09:06;0.70;99.90
40287;DHT22;25998;46.604;13.610;2023-01-20T02:12:19;0.80;99.90
40287;DHT22;25998;46.604;13.610;2023-01-20T02:16:17;0.70;99.90
40287;DHT22;25998;46.604;13.610;2023-01-20T02:19:23;0.70;99.90
40287;DHT22;25998;46.604;13.610;2023-01-20T02:27:04;0.70;99.90
40287;DHT22;25998;46.604;13.610;2023-01-20T02:34:03;0.70;99.90
40287;DHT22;25998;46.604;13.610;2023-01-20T02:37:24;0.60;99.90
40287;DHT22;25998;46.604;13.610;2023-01-20T02:41:16;0.50;99.90
40287;DHT22;25998;46.604;13.610;2023-01-20T02:44:49;0.60;99.90
40287;DHT22;25998;46.604;13.610;2023-01-20T02:48:20;0.50;99.90
40287;DHT22;25998;46.604;13.610;2023-01-20T02:51:49;0.50;99.90
40287;DHT22;25998;46.604;13.610;2023-01-20T02:55:08;0.60;99.90
40287;DHT22;25998;46.604;13.610;2023-01-20T02:58:33;0.60;99.90
40287;DHT22;25998;46.604;13.610;2023-01-20T03:01:52;0.50;99.90
40287;DHT22;25998;46.604;13.610;2023-01-20T03:05:08;0.60;99.90
40287;DHT22;25998;46.604;13.610;2023-01-20T03:08:22;0.60;99.90
40287;DHT22;25998;46.604;13.610;2023-01-20T03:11:39;0.50;99.90
40287;DHT22;25998;46.604;13.610;2023-01-20T03:14:53;0.60;99.90
40287;DHT22;25998;46.604;13.610;2023-01-20T03:18:04;0.60;99.90
40287;DHT22;25998;46.604;13.610;2023-01-20T03:21:15;0.60;99.90
40287;DHT22;25998;46.604;13.610;2023-01-20T03:24:28;0.60;99.90
40287;DHT22;25998;46.604;13.610;2023-01-20T03:27:40;0.50;99.90
40287;DHT22;25998;46.604;13.610;2023-01-20T03:30:55;0.60;99.90
40287;DHT22;25998;46.604;13.610;2023-01-20T03:34:13;0.60;99.90
40287;DHT22;25998;46.604;13.610;2023-01-20T03:37:26;0.60;99.90
40287;DHT22;25998;46.604;13.610;2023-01-20T03:40:42;0.60;99.90
40287;DHT22;25998;46.604;13.610;2023-01-20T03:44:12;0.60;99.90
40287;DHT22;25998;46.604;13.610;2023-01-20T03:47:46;0.70;99.90
40287;DHT22;25998;46.604;13.610;2023-01-20T03:51:09;0.90;99.90
40287;DHT22;25998;46.604;13.610;2023-01-20T03:54:29;0.80;99.90
40287;DHT22;25998;46.604;13.610;2023-01-20T03:58:00;0.80;99.90
40287;DHT22;25998;46.604;13.610;2023-01-20T04:01:17;0.80;99.90
40287;DHT22;25998;46.604;13.610;2023-01-20T04:04:29;0.80;99.90
40287;DHT22;25998;46.604;13.610;2023-01-20T04:07:44;0.70;99.90
40287;DHT22;25998;46.604;13.610;2023-01-20T04:10:57;0.70;99.90
40287;DHT22;25998;46.604;13.610;2023-01-20T04:14:10;0.70;99.90
40287;DHT22;25998;46.604;13.610;2023-01-20T04:17:26;0.70;99.90
40287;DHT22;25998;46.604;13.610;2023-01-20T04:20:38;0.70;99.90
40287;DHT22;25998;46.604;13.610;2023-01-20T04:23:55;0.70;99.90
40287;DHT22;25998;46.604;13.610;2023-01-20T04:27:07;0.60;99.90
40287;DHT22;25998;46.604;13.610;2023-01-20T04:30:18;0.60;99.90
40287;DHT22;25998;46.604;13.610;2023-01-20T04:33:29;0.60;99.90
40287;DHT22;25998;46.604;13.610;2023-01-20T04:36:40;0.40;99.90
40287;DHT22;25998;46.604;13.610;2023-01-20T04:39:51;0.40;99.90
40287;DHT22;25998;46.604;13.610;2023-01-20T04:43:03;0.40;99.90
40287;DHT22;25998;46.604;13.610;2023-01-20T04:46:15;0.40;99.90
40287;DHT22;25998;46.604;13.610;2023-01-20T04:49:26;0.40;99.90
40287;DHT22;25998;46.604;13.610;2023-01-20T04:52:37;0.40;99.90
40287;DHT22;25998;46.604;13.610;2023-01-20T04:55:48;0.30;99.90
40287;DHT22;25998;46.604;13.610;2023-01-20T04:58:59;0.30;99.90
40287;DHT22;25998;46.604;13.610;2023-01-20T05:02:09;0.30;99.90
40287;DHT22;25998;46.604;13.610;2023-01-20T05:05:20;0.30;99.90
40287;DHT22;25998;46.604;13.610;2023-01-20T05:08:31;0.20;99.90
40287;DHT22;25998;46.604;13.610;2023-01-20T05:11:43;0.20;99.90
40287;DHT22;25998;46.604;13.610;2023-01-20T05:14:54;0.20;99.90
40287;DHT22;25998;46.604;13.610;2023-01-20T05:18:05;0.20;99.90
40287;DHT22;25998;46.604;13.610;2023-01-20T05:21:16;0.30;99.90
40287;DHT22;25998;46.604;13.610;2023-01-20T05:24:26;0.40;99.90
40287;DHT22;25998;46.604;13.610;2023-01-20T05:27:41;0.40;99.90
40287;DHT22;25998;46.604;13.610;2023-01-20T05:30:57;0.40;99.90
40287;DHT22;25998;46.604;13.610;2023-01-20T05:34:08;0.30;99.90
40287;DHT22;25998;46.604;13.610;2023-01-20T05:37:20;0.40;99.90
40287;DHT22;25998;46.604;13.610;2023-01-20T05:40:30;0.40;99.90
40287;DHT22;25998;46.604;13.610;2023-01-20T05:43:41;0.40;99.90
40287;DHT22;25998;46.604;13.610;2023-01-20T05:46:52;0.40;99.90
40287;DHT22;25998;46.604;13.610;2023-01-20T05:50:04;0.30;99.90
40287;DHT22;25998;46.604;13.610;2023-01-20T05:53:15;0.40;99.90
40287;DHT22;25998;46.604;13.610;2023-01-20T05:56:26;0.40;99.90
40287;DHT22;25998;46.604;13.610;2023-01-20T05:59:37;0.40;99.90
40287;DHT22;25998;46.604;13.610;2023-01-20T06:02:48;0.40;99.90
40287;DHT22;25998;46.604;13.610;2023-01-20T06:06:03;0.40;99.90
40287;DHT22;25998;46.604;13.610;2023-01-20T06:09:17;0.50;99.90
40287;DHT22;25998;46.604;13.610;2023-01-20T06:12:28;0.60;99.90
40287;DHT22;25998;46.604;13.610;2023-01-20T06:15:53;0.60;99.90
40287;DHT22;25998;46.604;13.610;2023-01-20T06:19:06;0.80;99.90
40287;DHT22;25998;46.604;13.610;2023-01-20T06:22:17;0.80;99.90
40287;DHT22;25998;46.604;13.610;2023-01-20T06:25:30;0.70;99.90
40287;DHT22;25998;46.604;13.610;2023-01-20T06:28:42;0.60;99.90
40287;DHT22;25998;46.604;13.610;2023-01-20T06:31:53;0.50;99.90
40287;DHT22;25998;46.604;13.610;2023-01-20T06:35:04;0.50;99.90
40287;DHT22;25998;46.604;13.610;2023-01-20T06:38:16;0.40;99.90
40287;DHT22;25998;46.604;13.610;2023-01-20T06:41:29;0.40;99.90
40287;DHT22;25998;46.604;13.610;2023-01-20T06:44:40;0.30;99.90
40287;DHT22;25998;46.604;13.610;2023-01-20T06:47:50;0.40;99.90
40287;DHT22;25998;46.604;13.610;2023-01-20T06:51:19;0.40;99.90
40287;DHT22;25998;46.604;13.610;2023-01-20T06:54:30;0.30;99.90
40287;DHT22;25998;46.604;13.610;2023-01-20T06:57:41;0.30;99.90
40287;DHT22;25998;46.604;13.610;2023-01-20T07:00:53;0.30;99.90
40287;DHT22;25998;46.604;13.610;2023-01-20T07:04:12;0.40;99.90
40287;DHT22;25998;46.604;13.610;2023-01-20T07:07:23;0.30;99.90
40287;DHT22;25998;46.604;13.610;2023-01-20T07:10:36;0.30;99.90
40287;DHT22;25998;46.604;13.610;2023-01-20T07:13:50;0.30;99.90
40287;DHT22;25998;46.604;13.610;2023-01-20T07:17:12;0.40;99.90
40287;DHT22;25998;46.604;13.610;2023-01-20T07:20:28;0.30;99.90
40287;DHT22;25998;46.604;13.610;2023-01-20T07:23:41;0.30;99.90
40287;DHT22;25998;46.604;13.610;2023-01-20T07:26:52;0.30;99.90
40287;DHT22;25998;46.604;13.610;2023-01-20T07:30:04;0.20;99.90
40287;DHT22;25998;46.604;13.610;2023-01-20T07:33:15;0.20;99.90
40287;DHT22;25998;46.604;13.610;2023-01-20T07:36:46;0.20;99.90
40287;DHT22;25998;46.604;13.610;2023-01-20T07:40:18;0.30;99.90
40287;DHT22;25998;46.604;13.610;2023-01-20T07:43:51;0.30;99.90
40287;DHT22;25998;46.604;13.610;2023-01-20T07:47:22;0.30;99.90
40287;DHT22;25998;46.604;13.610;2023-01-20T07:50:34;0.20;99.90
40287;DHT22;25998;46.604;13.610;2023-01-20T07:54:05;0.40;99.90
40287;DHT22;25998;46.604;13.610;2023-01-20T07:57:30;0.30;99.90
40287;DHT22;25998;46.604;13.610;2023-01-20T08:00:41;0.30;99.90
40287;DHT22;25998;46.604;13.610;2023-01-20T08:03:53;0.30;99.90
40287;DHT22;25998;46.604;13.610;2023-01-20T08:07:04;0.20;99.90
40287;DHT22;25998;46.604;13.610;2023-01-20T08:10:17;0.20;99.90
40287;DHT22;25998;46.604;13.610;2023-01-20T08:13:32;0.20;99.90
40287;DHT22;25998;46.604;13.610;2023-01-20T08:16:43;0.30;99.90
40287;DHT22;25998;46.604;13.610;2023-01-20T08:19:54;0.30;99.90
40287;DHT22;25998;46.604;13.610;2023-01-20T08:23:07;0.30;99.90
40287;DHT22;25998;46.604;13.610;2023-01-20T08:26:18;0.30;99.90
40287;DHT22;25998;46.604;13.610;2023-01-20T08:29:33;0.30;99.90
40287;DHT22;25998;46.604;13.610;2023-01-20T08:32:47;0.20;99.90
40287;DHT22;25998;46.604;13.610;2023-01-20T08:36:10;0.30;99.90
40287;DHT22;25998;46.604;13.610;2023-01-20T08:39:22;0.30;99.90
40287;DHT22;25998;46.604;13.610;2023-01-20T08:42:37;0.40;99.90
40287;DHT22;25998;46.604;13.610;2023-01-20T08:46:04;0.40;99.90
40287;DHT22;25998;46.604;13.610;2023-01-20T08:49:18;0.30;99.90
40287;DHT22;25998;46.604;13.610;2023-01-20T08:52:32;0.20;99.90
40287;DHT22;25998;46.604;13.610;2023-01-20T08:55:43;0.40;99.90
40287;DHT22;25998;46.604;13.610;2023-01-20T08:59:11;0.40;99.90
40287;DHT22;25998;46.604;13.610;2023-01-20T09:02:22;0.50;99.90
40287;DHT22;25998;46.604;13.610;2023-01-20T09:05:35;0.60;99.90
40287;DHT22;25998;46.604;13.610;2023-01-20T09:08:46;0.60;99.90
40287;DHT22;25998;46.604;13.610;2023-01-20T09:11:57;0.70;99.90
40287;DHT22;25998;46.604;13.610;2023-01-20T09:15:08;0.70;99.90
40287;DHT22;25998;46.604;13.610;2023-01-20T09:18:20;0.70;99.90
40287;DHT22;25998;46.604;13.610;2023-01-20T09:21:31;0.70;99.90
40287;DHT22;25998;46.604;13.610;2023-01-20T09:24:42;0.80;99.90
40287;DHT22;25998;46.604;13.610;2023-01-20T09:27:52;0.90;99.90
40287;DHT22;25998;46.604;13.610;2023-01-20T09:31:06;0.90;99.90
40287;DHT22;25998;46.604;13.610;2023-01-20T09:34:19;0.80;99.90
40287;DHT22;25998;46.604;13.610;2023-01-20T09:37:33;0.90;99.90
40287;DHT22;25998;46.604;13.610;2023-01-20T09:52:26;1.00;99.90
40287;DHT22;25998;46.604;13.610;2023-01-20T09:56:00;1.20;99.90
40287;DHT22;25998;46.604;13.610;2023-01-20T09:59:26;1.20;99.90
40287;DHT22;25998;46.604;13.610;2023-01-20T10:02:38;1.30;99.90
40287;DHT22;25998;46.604;13.610;2023-01-20T10:05:54;1.40;99.90
40287;DHT22;25998;46.604;13.610;2023-01-20T10:13:06;1.50;99.90
40287;DHT22;25998;46.604;13.610;2023-01-20T10:16:55;1.70;99.90
40287;DHT22;25998;46.604;13.610;2023-01-20T10:20:20;1.70;99.90
40287;DHT22;25998;46.604;13.610;2023-01-20T10:23:59;1.80;99.90
40287;DHT22;25998;46.604;13.610;2023-01-20T10:27:11;1.70;99.90
40287;DHT22;25998;46.604;13.610;2023-01-20T10:30:25;1.90;99.90
40287;DHT22;25998;46.604;13.610;2023-01-20T10:33:42;2.10;99.90
40287;DHT22;25998;46.604;13.610;2023-01-20T10:37:09;1.90;99.90
40287;DHT22;25998;46.604;13.610;2023-01-20T10:40:27;2.00;99.90
40287;DHT22;25998;46.604;13.610;2023-01-20T10:43:39;2.20;99.90
40287;DHT22;25998;46.604;13.610;2023-01-20T10:57:22;2.10;99.90
40287;DHT22;25998;46.604;13.610;2023-01-20T11:00:34;2.40;99.90
40287;DHT22;25998;46.604;13.610;2023-01-20T11:03:47;2.30;99.90
40287;DHT22;25998;46.604;13.610;2023-01-20T11:06:59;2.20;99.90
40287;DHT22;25998;46.604;13.610;2023-01-20T11:10:25;2.10;99.90
40287;DHT22;25998;46.604;13.610;2023-01-20T11:13:36;1.80;99.90
40287;DHT22;25998;46.604;13.610;2023-01-20T11:16:50;1.80;99.90
40287;DHT22;25998;46.604;13.610;2023-01-20T11:20:05;1.90;99.90
40287;DHT22;25998;46.604;13.610;2023-01-20T11:23:36;1.90;99.90
40287;DHT22;25998;46.604;13.610;2023-01-20T11:26:48;2.00;99.90
40287;DHT22;25998;46.604;13.610;2023-01-20T11:30:03;1.90;99.90
40287;DHT22;25998;46.604;13.610;2023-01-20T11:33:24;1.90;99.90
40287;DHT22;25998;46.604;13.610;2023-01-20T11:36:35;1.90;99.90
40287;DHT22;25998;46.604;13.610;2023-01-20T11:40:00;1.80;99.90
40287;DHT22;25998;46.604;13.610;2023-01-20T11:43:35;1.80;99.90
40287;DHT22;25998;46.604;13.610;2023-01-20T11:46:47;1.80;99.90
40287;DHT22;25998;46.604;13.610;2023-01-20T11:50:26;1.70;99.90
40287;DHT22;25998;46.604;13.610;2023-01-20T11:53:37;1.60;99.90
40287;DHT22;25998;46.604;13.610;2023-01-20T11:56:53;1.50;99.90
40287;DHT22;25998;46.604;13.610;2023-01-20T12:07:21;1.70;99.90
40287;DHT22;25998;46.604;13.610;2023-01-20T12:10:34;1.90;99.90
40287;DHT22;25998;46.604;13.610;2023-01-20T12:14:02;1.80;99.90
40287;DHT22;25998;46.604;13.610;2023-01-20T12:18:11;1.60;99.90
40287;DHT22;25998;46.604;13.610;2023-01-20T12:21:16;1.60;99.90
40287;DHT22;25998;46.604;13.610;2023-01-20T12:24:35;1.40;99.90
40287;DHT22;25998;46.604;13.610;2023-01-20T12:28:18;1.30;99.90
40287;DHT22;25998;46.604;13.610;2023-01-20T12:31:31;1.40;99.90
40287;DHT22;25998;46.604;13.610;2023-01-20T12:34:42;1.40;99.90
40287;DHT22;25998;46.604;13.610;2023-01-20T12:37:59;1.50;99.90
40287;DHT22;25998;46.604;13.610;2023-01-20T12:44:49;1.60;99.90
40287;DHT22;25998;46.604;13.610;2023-01-20T12:51:57;1.40;99.90
40287;DHT22;25998;46.604;13.610;2023-01-20T12:58:44;1.50;99.90
40287;DHT22;25998;46.604;13.610;2023-01-20T13:12:47;1.40;99.90
40287;DHT22;25998;46.604;13.610;2023-01-20T13:16:18;1.30;99.90
40287;DHT22;25998;46.604;13.610;2023-01-20T13:19:33;1.40;99.90
40287;DHT22;25998;46.604;13.610;2023-01-20T13:22:47;1.40;99.90
40287;DHT22;25998;46.604;13.610;2023-01-20T13:26:00;1.40;99.90
40287;DHT22;25998;46.604;13.610;2023-01-20T13:29:41;1.40;99.90
40287;DHT22;25998;46.604;13.610;2023-01-20T13:33:01;1.40;99.90
40287;DHT22;25998;46.604;13.610;2023-01-20T13:42:46;1.20;99.90
40287;DHT22;25998;46.604;13.610;2023-01-20T13:49:23;1.20;99.90
40287;DHT22;25998;46.604;13.610;2023-01-20T13:56:00;1.30;99.90
40287;DHT22;25998;46.604;13.610;2023-01-20T13:59:12;1.40;99.90
40287;DHT22;25998;46.604;13.610;2023-01-20T14:02:24;1.30;99.90
40287;DHT22;25998;46.604;13.610;2023-01-20T14:05:35;1.30;99.90
40287;DHT22;25998;46.604;13.610;2023-01-20T14:08:48;1.20;99.90
40287;DHT22;25998;46.604;13.610;2023-01-20T14:11:59;1.30;99.90
40287;DHT22;25998;46.604;13.610;2023-01-20T14:15:28;1.50;99.90
40287;DHT22;25998;46.604;13.610;2023-01-20T14:18:41;1.70;99.90
40287;DHT22;25998;46.604;13.610;2023-01-20T14:21:57;1.50;99.90
40287;DHT22;25998;46.604;13.610;2023-01-20T14:25:23;1.60;99.90
40287;DHT22;25998;46.604;13.610;2023-01-20T14:28:41;1.50;99.90
40287;DHT22;25998;46.604;13.610;2023-01-20T14:31:52;1.30;99.90
40287;DHT22;25998;46.604;13.610;2023-01-20T14:35:16;1.30;99.90
40287;DHT22;25998;46.604;13.610;2023-01-20T14:38:27;1.50;99.90
40287;DHT22;25998;46.604;13.610;2023-01-20T14:41:50;1.40;99.90
40287;DHT22;25998;46.604;13.610;2023-01-20T14:45:01;1.50;99.90
40287;DHT22;25998;46.604;13.610;2023-01-20T14:48:12;1.40;99.90
40287;DHT22;25998;46.604;13.610;2023-01-20T14:51:24;1.30;99.90
40287;DHT22;25998;46.604;13.610;2023-01-20T14:54:42;1.30;99.90
40287;DHT22;25998;46.604;13.610;2023-01-20T14:57:54;1.30;99.90
40287;DHT22;25998;46.604;13.610;2023-01-20T15:01:05;1.30;99.90
40287;DHT22;25998;46.604;13.610;2023-01-20T15:04:16;1.30;99.90
40287;DHT22;25998;46.604;13.610;2023-01-20T15:07:27;1.20;99.90
40287;DHT22;25998;46.604;13.610;2023-01-20T15:10:38;1.20;99.90
40287;DHT22;25998;46.604;13.610;2023-01-20T15:17:09;1.10;99.90
40287;DHT22;25998;46.604;13.610;2023-01-20T15:20:31;1.20;99.90
40287;DHT22;25998;46.604;13.610;2023-01-20T15:23:43;1.10;99.90
40287;DHT22;25998;46.604;13.610;2023-01-20T15:26:57;1.20;99.90
40287;DHT22;25998;46.604;13.610;2023-01-20T15:30:23;1.20;99.90
40287;DHT22;25998;46.604;13.610;2023-01-20T15:33:37;1.30;99.90
40287;DHT22;25998;46.604;13.610;2023-01-20T15:36:49;1.40;99.90
40287;DHT22;25998;46.604;13.610;2023-01-20T15:40:00;1.10;99.90
40287;DHT22;25998;46.604;13.610;2023-01-20T15:43:14;1.00;99.90
40287;DHT22;25998;46.604;13.610;2023-01-20T15:46:25;1.00;99.90
40287;DHT22;25998;46.604;13.610;2023-01-20T15:49:36;1.10;99.90
40287;DHT22;25998;46.604;13.610;2023-01-20T15:52:47;1.10;99.90
40287;DHT22;25998;46.604;13.610;2023-01-20T15:55:59;1.00;99.90
40287;DHT22;25998;46.604;13.610;2023-01-20T15:59:17;1.20;99.90
40287;DHT22;25998;46.604;13.610;2023-01-20T16:02:30;1.20;99.90
40287;DHT22;25998;46.604;13.610;2023-01-20T16:05:41;1.20;99.90
40287;DHT22;25998;46.604;13.610;2023-01-20T16:08:52;1.20;99.90
40287;DHT22;25998;46.604;13.610;2023-01-20T16:12:03;1.10;99.90
40287;DHT22;25998;46.604;13.610;2023-01-20T16:15:17;1.10;99.90
40287;DHT22;25998;46.604;13.610;2023-01-20T16:18:28;1.00;99.90
40287;DHT22;25998;46.604;13.610;2023-01-20T16:21:40;0.90;99.90
40287;DHT22;25998;46.604;13.610;2023-01-20T16:24:50;0.90;99.90
40287;DHT22;25998;46.604;13.610;2023-01-20T16:28:11;1.00;99.90
40287;DHT22;25998;46.604;13.610;2023-01-20T16:31:24;1.00;99.90
40287;DHT22;25998;46.604;13.610;2023-01-20T16:34:35;1.10;99.90
40287;DHT22;25998;46.604;13.610;2023-01-20T16:37:46;1.00;99.90
40287;DHT22;25998;46.604;13.610;2023-01-20T16:41:04;1.10;99.90
40287;DHT22;25998;46.604;13.610;2023-01-20T16:44:15;1.00;99.90
40287;DHT22;25998;46.604;13.610;2023-01-20T16:47:26;1.00;99.90
40287;DHT22;25998;46.604;13.610;2023-01-20T16:50:37;1.10;99.90
40287;DHT22;25998;46.604;13.610;2023-01-20T16:53:48;0.90;99.90
40287;DHT22;25998;46.604;13.610;2023-01-20T16:56:59;1.00;99.90
40287;DHT22;25998;46.604;13.610;2023-01-20T17:00:10;1.10;99.90
40287;DHT22;25998;46.604;13.610;2023-01-20T17:03:25;1.00;99.90
40287;DHT22;25998;46.604;13.610;2023-01-20T17:06:36;0.90;99.90
40287;DHT22;25998;46.604;13.610;2023-01-20T17:09:47;0.90;99.90
40287;DHT22;25998;46.604;13.610;2023-01-20T17:12:58;1.00;99.90
40287;DHT22;25998;46.604;13.610;2023-01-20T17:16:09;1.10;99.90
40287;DHT22;25998;46.604;13.610;2023-01-20T17:19:20;1.20;99.90
40287;DHT22;25998;46.604;13.610;2023-01-20T17:22:30;1.10;99.90
40287;DHT22;25998;46.604;13.610;2023-01-20T17:25:41;1.10;99.90
40287;DHT22;25998;46.604;13.610;2023-01-20T17:28:59;1.00;99.90
40287;DHT22;25998;46.604;13.610;2023-01-20T17:32:13;1.20;99.90
40287;DHT22;25998;46.604;13.610;2023-01-20T17:35:25;1.00;99.90
40287;DHT22;25998;46.604;13.610;2023-01-20T17:38:37;0.90;99.90
40287;DHT22;25998;46.604;13.610;2023-01-20T17:41:51;0.70;99.90
40287;DHT22;25998;46.604;13.610;2023-01-20T17:45:01;0.70;99.90
40287;DHT22;25998;46.604;13.610;2023-01-20T17:48:13;0.70;99.90
40287;DHT22;25998;46.604;13.610;2023-01-20T17:51:25;0.80;99.90
40287;DHT22;25998;46.604;13.610;2023-01-20T17:54:37;0.90;99.90
40287;DHT22;25998;46.604;13.610;2023-01-20T17:57:49;1.20;99.90
40287;DHT22;25998;46.604;13.610;2023-01-20T18:01:15;0.90;99.90
40287;DHT22;25998;46.604;13.610;2023-01-20T18:04:26;1.20;99.90
40287;DHT22;25998;46.604;13.610;2023-01-20T18:07:37;1.00;99.90
40287;DHT22;25998;46.604;13.610;2023-01-20T18:10:48;1.10;99.90
40287;DHT22;25998;46.604;13.610;2023-01-20T18:14:00;1.20;99.90
40287;DHT22;25998;46.604;13.610;2023-01-20T18:17:13;1.40;99.90
40287;DHT22;25998;46.604;13.610;2023-01-20T18:20:24;1.30;99.90
40287;DHT22;25998;46.604;13.610;2023-01-20T18:23:35;1.10;99.90
40287;DHT22;25998;46.604;13.610;2023-01-20T18:26:46;0.80;99.90
40287;DHT22;25998;46.604;13.610;2023-01-20T18:29:56;1.00;99.90
40287;DHT22;25998;46.604;13.610;2023-01-20T18:33:07;1.10;99.90
40287;DHT22;25998;46.604;13.610;2023-01-20T18:36:27;1.00;99.90
40287;DHT22;25998;46.604;13.610;2023-01-20T18:39:38;1.00;99.90
40287;DHT22;25998;46.604;13.610;2023-01-20T18:42:48;1.00;99.90
40287;DHT22;25998;46.604;13.610;2023-01-20T18:45:59;0.80;99.90
40287;DHT22;25998;46.604;13.610;2023-01-20T18:49:14;0.80;99.90
40287;DHT22;25998;46.604;13.610;2023-01-20T18:52:25;1.00;99.90
40287;DHT22;25998;46.604;13.610;2023-01-20T18:55:36;1.00;99.90
40287;DHT22;25998;46.604;13.610;2023-01-20T18:58:46;0.90;99.90
40287;DHT22;25998;46.604;13.610;2023-01-20T19:01:59;0.80;99.90
40287;DHT22;25998;46.604;13.610;2023-01-20T19:05:09;0.70;99.90
40287;DHT22;25998;46.604;13.610;2023-01-20T19:08:20;0.70;99.90
40287;DHT22;25998;46.604;13.610;2023-01-20T19:11:35;0.70;99.90
40287;DHT22;25998;46.604;13.610;2023-01-20T19:14:48;0.50;99.90
40287;DHT22;25998;46.604;13.610;2023-01-20T19:18:02;0.70;99.90
40287;DHT22;25998;46.604;13.610;2023-01-20T19:21:13;0.30;99.90
40287;DHT22;25998;46.604;13.610;2023-01-20T19:24:24;0.30;99.90
40287;DHT22;25998;46.604;13.610;2023-01-20T19:27:38;0.20;99.90
40287;DHT22;25998;46.604;13.610;2023-01-20T19:30:49;0.20;99.90
40287;DHT22;25998;46.604;13.610;2023-01-20T19:34:00;0.40;99.90
40287;DHT22;25998;46.604;13.610;2023-01-20T19:37:12;0.40;99.90
40287;DHT22;25998;46.604;13.610;2023-01-20T19:40:22;0.30;99.90
40287;DHT22;25998;46.604;13.610;2023-01-20T19:43:34;0.30;99.90
40287;DHT22;25998;46.604;13.610;2023-01-20T19:46:45;0.40;99.90
40287;DHT22;25998;46.604;13.610;2023-01-20T19:49:56;0.30;99.90
40287;DHT22;25998;46.604;13.610;2023-01-20T19:53:07;-0.10;99.90
40287;DHT22;25998;46.604;13.610;2023-01-20T19:56:18;-0.10;99.90
40287;DHT22;25998;46.604;13.610;2023-01-20T19:59:29;-0.20;99.90
40287;DHT22;25998;46.604;13.610;2023-01-20T20:02:40;0.00;99.90
40287;DHT22;25998;46.604;13.610;2023-01-20T20:05:51;0.10;99.90
40287;DHT22;25998;46.604;13.610;2023-01-20T20:09:05;-0.10;99.90
40287;DHT22;25998;46.604;13.610;2023-01-20T20:12:16;-0.20;99.90
40287;DHT22;25998;46.604;13.610;2023-01-20T20:15:27;0.10;99.90
40287;DHT22;25998;46.604;13.610;2023-01-20T20:18:38;0.10;99.90
40287;DHT22;25998;46.604;13.610;2023-01-20T20:21:49;0.10;99.90
40287;DHT22;25998;46.604;13.610;2023-01-20T20:25:00;-0.20;99.90
40287;DHT22;25998;46.604;13.610;2023-01-20T20:28:11;-0.60;99.90
40287;DHT22;25998;46.604;13.610;2023-01-20T20:31:21;-0.30;99.90
40287;DHT22;25998;46.604;13.610;2023-01-20T20:34:38;-0.40;99.90
40287;DHT22;25998;46.604;13.610;2023-01-20T20:37:48;-0.20;99.90
40287;DHT22;25998;46.604;13.610;2023-01-20T20:40:59;-0.20;99.90
40287;DHT22;25998;46.604;13.610;2023-01-20T20:44:11;0.10;99.90
40287;DHT22;25998;46.604;13.610;2023-01-20T20:47:22;0.10;99.90
40287;DHT22;25998;46.604;13.610;2023-01-20T20:50:33;0.10;99.90
40287;DHT22;25998;46.604;13.610;2023-01-20T20:53:44;0.20;99.90
40287;DHT22;25998;46.604;13.610;2023-01-20T20:56:55;0.00;99.90
40287;DHT22;25998;46.604;13.610;2023-01-20T21:00:06;0.00;99.90
40287;DHT22;25998;46.604;13.610;2023-01-20T21:03:17;-0.30;99.90
40287;DHT22;25998;46.604;13.610;2023-01-20T21:06:29;-0.20;99.90
40287;DHT22;25998;46.604;13.610;2023-01-20T21:09:40;-0.40;99.90
40287;DHT22;25998;46.604;13.610;2023-01-20T21:12:51;-0.30;99.90
40287;DHT22;25998;46.604;13.610;2023-01-20T21:16:04;-0.10;99.90
40287;DHT22;25998;46.604;13.610;2023-01-20T21:19:19;-0.10;99.90
40287;DHT22;25998;46.604;13.610;2023-01-20T21:22:30;-0.30;99.90
40287;DHT22;25998;46.604;13.610;2023-01-20T21:25:41;-0.50;99.90
40287;DHT22;25998;46.604;13.610;2023-01-20T21:28:52;-0.30;99.90
40287;DHT22;25998;46.604;13.610;2023-01-20T21:32:03;-0.50;99.90
40287;DHT22;25998;46.604;13.610;2023-01-20T21:35:14;-0.40;99.90
40287;DHT22;25998;46.604;13.610;2023-01-20T21:38:25;-0.50;99.90
40287;DHT22;25998;46.604;13.610;2023-01-20T21:41:36;-0.60;99.90
40287;DHT22;25998;46.604;13.610;2023-01-20T21:44:47;-0.40;99.90
40287;DHT22;25998;46.604;13.610;2023-01-20T21:47:58;-0.50;99.90